createdAt,value
2017-01-07T14:38:29.505Z,963.79
2017-01-07T14:39:29.484Z,963.77
2017-01-07T14:40:29.463Z,963.75
2017-01-07T14:41:29.443Z,963.75
2017-01-07T14:42:29.421Z,963.72
2017-01-07T14:43:29.400Z,963.69
2017-01-07T14:44:29.378Z,963.67
2017-01-07T14:45:29.359Z,963.65
2017-01-07T14:46:29.337Z,963.66
2017-01-07T14:47:29.316Z,963.69
2017-01-07T14:48:29.314Z,963.67
2017-01-07T14:49:29.293Z,963.66
2017-01-07T14:50:29.272Z,963.62
2017-01-07T14:51:29.251Z,963.64
2017-01-07T14:52:29.230Z,963.6
2017-01-07T14:53:29.209Z,963.58
2017-01-07T14:54:29.188Z,963.54
2017-01-07T14:55:29.166Z,963.58
2017-01-07T14:56:29.145Z,963.56
2017-01-07T14:57:29.123Z,963.5
2017-01-07T14:58:29.104Z,963.56
2017-01-07T14:59:29.081Z,963.46
2017-01-07T15:00:29.062Z,963.41
2017-01-07T15:01:29.101Z,963.46
2017-01-07T15:02:29.071Z,963.39
2017-01-07T15:03:29.247Z,963.45
2017-01-07T15:04:29.044Z,963.42
2017-01-07T15:05:29.003Z,963.38
2017-01-07T15:06:28.996Z,963.45
2017-01-07T15:07:28.970Z,963.45
2017-01-07T15:08:29.290Z,963.48
2017-01-07T15:09:28.938Z,963.4
2017-01-07T15:10:28.907Z,963.41
2017-01-07T15:11:28.889Z,963.41
2017-01-07T15:12:28.872Z,963.46
2017-01-07T15:13:28.894Z,963.45
2017-01-07T15:14:28.793Z,963.41
2017-01-07T15:15:28.807Z,963.45
2017-01-07T15:16:28.770Z,963.39
2017-01-07T15:17:28.743Z,963.35
2017-01-07T15:18:28.732Z,963.39
2017-01-07T15:19:28.721Z,963.3
2017-01-07T15:20:28.697Z,963.36
2017-01-07T15:21:28.681Z,963.34
2017-01-07T15:22:28.654Z,963.32
2017-01-07T15:23:28.622Z,963.31
2017-01-07T15:24:28.607Z,963.28
2017-01-07T15:25:28.594Z,963.28
2017-01-07T15:26:28.558Z,963.33
2017-01-07T15:27:28.531Z,963.37
2017-01-07T15:28:28.513Z,963.29
2017-01-07T15:29:28.499Z,963.29
2017-01-07T15:30:28.477Z,963.33
2017-01-07T15:31:28.398Z,963.38
2017-01-07T15:32:28.377Z,963.32
2017-01-07T15:33:28.355Z,963.34
2017-01-07T15:34:28.335Z,963.32
2017-01-07T15:35:28.312Z,963.31
2017-01-07T15:36:28.292Z,963.3
2017-01-07T15:37:28.270Z,963.24
2017-01-07T15:38:28.247Z,963.3
2017-01-07T15:39:28.227Z,963.31
2017-01-07T15:40:28.205Z,963.32
2017-01-07T15:41:28.183Z,963.31
2017-01-07T15:42:28.161Z,963.26
2017-01-07T15:43:28.140Z,963.24
2017-01-07T15:44:28.117Z,963.22
2017-01-07T15:45:28.096Z,963.27
2017-01-07T15:46:28.074Z,963.3
2017-01-07T15:47:28.053Z,963.33
2017-01-07T15:48:28.031Z,963.27
2017-01-07T15:49:28.010Z,963.27
2017-01-07T15:50:27.987Z,963.18
2017-01-07T15:51:27.965Z,963.21
2017-01-07T15:52:27.945Z,963.17
2017-01-07T15:53:27.921Z,963.09
2017-01-07T15:54:27.899Z,963.16
2017-01-07T15:55:27.878Z,963.17
2017-01-07T15:56:27.856Z,963.2
2017-01-07T15:57:27.834Z,963.22
2017-01-07T15:58:27.814Z,963.22
2017-01-07T15:59:27.790Z,963.23
2017-01-07T16:00:27.769Z,963.3
2017-01-07T16:01:27.747Z,963.21
2017-01-07T16:02:27.725Z,963.31
2017-01-07T16:03:27.703Z,963.34
2017-01-07T16:04:27.681Z,963.33
2017-01-07T16:05:27.662Z,963.35
2017-01-07T16:06:27.638Z,963.33
2017-01-07T16:07:27.617Z,963.31
2017-01-07T16:08:27.594Z,963.31
2017-01-07T16:09:27.573Z,963.37
2017-01-07T16:10:27.551Z,963.37
2017-01-07T16:11:27.528Z,963.32
2017-01-07T16:12:27.507Z,963.29
2017-01-07T16:13:27.485Z,963.28
2017-01-07T16:14:27.465Z,963.27
2017-01-07T16:15:27.442Z,963.26
2017-01-07T16:16:27.420Z,963.25
2017-01-07T16:17:27.397Z,963.19
2017-01-07T16:18:27.378Z,963.15
2017-01-07T16:19:27.356Z,963.2
2017-01-07T16:20:27.332Z,963.16
2017-01-07T16:21:27.309Z,963.17
2017-01-07T16:22:27.288Z,963.15
2017-01-07T16:23:27.267Z,963.15
2017-01-07T16:24:27.246Z,963.13
2017-01-07T16:25:27.224Z,963.15
2017-01-07T16:26:27.201Z,963.19
2017-01-07T16:27:27.179Z,963.17
2017-01-07T16:28:27.156Z,963.2
2017-01-07T16:29:27.134Z,963.09
2017-01-07T16:30:27.114Z,963.04
2017-01-07T16:31:27.091Z,963.06
2017-01-07T16:32:27.070Z,963
2017-01-07T16:33:27.047Z,963.03
2017-01-07T16:34:27.027Z,963.02
2017-01-07T16:35:27.005Z,962.99
2017-01-07T16:36:26.983Z,963.06
2017-01-07T16:37:26.960Z,963.06
2017-01-07T16:38:26.939Z,963.03
2017-01-07T16:39:26.917Z,963.11
2017-01-07T16:40:26.895Z,963.13
2017-01-07T16:41:26.874Z,963.1
2017-01-07T16:42:26.852Z,963.19
2017-01-07T16:43:26.829Z,963.04
2017-01-07T16:44:26.809Z,963.06
2017-01-07T16:45:26.786Z,963.09
2017-01-07T16:46:26.765Z,963.1
2017-01-07T16:47:26.741Z,963.07
2017-01-07T16:48:26.720Z,963.03
2017-01-07T16:49:26.698Z,963.01
2017-01-07T16:50:26.676Z,963.01
2017-01-07T16:51:26.655Z,962.94
2017-01-07T16:52:26.632Z,962.93
2017-01-07T16:53:26.613Z,962.89
2017-01-07T16:54:26.590Z,962.87
2017-01-07T16:55:26.568Z,962.81
2017-01-07T16:56:26.547Z,962.8
2017-01-07T16:57:26.527Z,962.75
2017-01-07T16:58:26.504Z,962.76
2017-01-07T16:59:26.482Z,962.74
2017-01-07T17:00:26.461Z,962.65
2017-01-07T17:01:26.437Z,962.63
2017-01-07T17:02:26.417Z,962.61
2017-01-07T17:03:26.396Z,962.58
2017-01-07T17:04:26.372Z,962.61
2017-01-07T17:05:26.352Z,962.51
2017-01-07T17:06:26.329Z,962.55
2017-01-07T17:07:26.309Z,962.52
2017-01-07T17:08:26.285Z,962.45
2017-01-07T17:09:26.264Z,962.44
2017-01-07T17:10:26.242Z,962.45
2017-01-07T17:11:26.221Z,962.38
2017-01-07T17:12:26.197Z,962.41
2017-01-07T17:13:26.177Z,962.4
2017-01-07T17:14:26.156Z,962.44
2017-01-07T17:15:26.133Z,962.38
2017-01-07T17:16:26.111Z,962.35
2017-01-07T17:17:26.090Z,962.33
2017-01-07T17:18:26.067Z,962.34
2017-01-07T17:19:26.062Z,962.23
2017-01-07T17:20:26.024Z,962.25
2017-01-07T17:21:26.002Z,962.2
2017-01-07T17:22:25.981Z,962.23
2017-01-07T17:23:25.958Z,962.26
2017-01-07T17:24:25.937Z,962.3
2017-01-07T17:25:25.915Z,962.29
2017-01-07T17:26:25.894Z,962.28
2017-01-07T17:27:25.872Z,962.22
2017-01-07T17:28:25.849Z,962.23
2017-01-07T17:29:25.828Z,962.23
2017-01-07T17:30:25.806Z,962.25
2017-01-07T17:31:25.783Z,962.15
2017-01-07T17:32:25.764Z,962.19
2017-01-07T17:33:25.741Z,962.16
2017-01-07T17:34:25.719Z,962.14
2017-01-07T17:35:25.697Z,962.13
2017-01-07T17:36:25.676Z,962.17
2017-01-07T17:37:25.654Z,962.16
2017-01-07T17:38:25.632Z,962.08
2017-01-07T17:39:25.610Z,962.12
2017-01-07T17:40:25.589Z,962.06
2017-01-07T17:41:25.567Z,962.02
2017-01-07T17:42:25.546Z,962.01
2017-01-07T17:43:25.526Z,962
2017-01-07T17:44:25.504Z,962.07
2017-01-07T17:45:25.480Z,962.14
2017-01-07T17:46:25.458Z,962.11
2017-01-07T17:47:25.437Z,962.07
2017-01-07T17:48:25.417Z,962.15
2017-01-07T17:49:25.394Z,962.14
2017-01-07T17:50:25.372Z,962.05
2017-01-07T17:51:25.351Z,962.08
2017-01-07T17:52:25.329Z,962.07
2017-01-07T17:53:25.307Z,962.02
2017-01-07T17:54:25.285Z,961.94
2017-01-07T17:55:25.264Z,961.92
2017-01-07T17:56:25.241Z,961.83
2017-01-07T17:57:25.220Z,961.97
2017-01-07T17:58:25.198Z,961.93
2017-01-07T17:59:25.177Z,961.96
2017-01-07T18:00:25.156Z,961.92
2017-01-07T18:01:25.134Z,961.99
2017-01-07T18:02:25.111Z,961.99
2017-01-07T18:03:25.089Z,962.04
2017-01-07T18:04:25.067Z,961.95
2017-01-07T18:05:25.048Z,961.99
2017-01-07T18:06:25.024Z,961.96
2017-01-07T18:07:25.003Z,961.95
2017-01-07T18:08:24.981Z,962.05
2017-01-07T18:09:24.959Z,961.94
2017-01-07T18:10:24.939Z,961.93
2017-01-07T18:11:24.916Z,961.86
2017-01-07T18:12:24.895Z,961.85
2017-01-07T18:13:24.874Z,961.86
2017-01-07T18:14:24.850Z,961.83
2017-01-07T18:15:24.829Z,961.83
2017-01-07T18:16:24.809Z,961.86
2017-01-07T18:17:24.786Z,961.83
2017-01-07T18:18:24.765Z,961.83
2017-01-07T18:19:24.743Z,961.89
2017-01-07T18:20:24.722Z,961.86
2017-01-07T18:21:24.701Z,961.8
2017-01-07T18:22:24.679Z,961.8
2017-01-07T18:23:24.658Z,961.89
2017-01-07T18:24:24.636Z,961.9
2017-01-07T18:25:24.615Z,961.89
2017-01-07T18:26:24.593Z,961.85
2017-01-07T18:27:24.573Z,961.89
2017-01-07T18:28:24.550Z,961.85
2017-01-07T18:29:24.527Z,961.93
2017-01-07T18:30:24.507Z,961.82
2017-01-07T18:31:24.486Z,961.76
2017-01-07T18:32:24.464Z,961.78
2017-01-07T18:33:24.443Z,961.77
2017-01-07T18:34:24.423Z,961.77
2017-01-07T18:35:24.402Z,961.73
2017-01-07T18:36:24.379Z,961.7
2017-01-07T18:37:24.359Z,961.62
2017-01-07T18:38:24.337Z,961.65
2017-01-07T18:39:24.316Z,961.62
2017-01-07T18:40:24.294Z,961.66
2017-01-07T18:41:24.273Z,961.68
2017-01-07T18:42:24.251Z,961.63
2017-01-07T18:43:24.230Z,961.69
2017-01-07T18:44:24.208Z,961.76
2017-01-07T18:45:24.187Z,961.69
2017-01-07T18:46:24.167Z,961.67
2017-01-07T18:47:24.143Z,961.69
2017-01-07T18:48:24.122Z,961.73
2017-01-07T18:49:24.102Z,961.67
2017-01-07T18:50:24.080Z,961.7
2017-01-07T18:51:24.059Z,961.66
2017-01-07T18:52:24.038Z,961.7
2017-01-07T18:53:24.015Z,961.68
2017-01-07T18:54:23.993Z,961.79
2017-01-07T18:55:23.972Z,961.73
2017-01-07T18:56:23.952Z,961.76
2017-01-07T18:57:23.931Z,961.65
2017-01-07T18:58:23.909Z,961.66
2017-01-07T18:59:23.887Z,961.65
2017-01-07T19:00:23.866Z,961.64
2017-01-07T19:01:23.845Z,961.54
2017-01-07T19:02:23.823Z,961.52
2017-01-07T19:03:23.800Z,961.57
2017-01-07T19:04:23.780Z,961.55
2017-01-07T19:05:23.758Z,961.56
2017-01-07T19:06:23.737Z,961.54
2017-01-07T19:07:23.716Z,961.58
2017-01-07T19:08:23.695Z,961.54
2017-01-07T19:09:23.674Z,961.51
2017-01-07T19:10:23.651Z,961.51
2017-01-07T19:11:23.630Z,961.52
2017-01-07T19:12:23.608Z,961.54
2017-01-07T19:13:23.586Z,961.52
2017-01-07T19:14:23.564Z,961.52
2017-01-07T19:15:23.543Z,961.54
2017-01-07T19:16:23.520Z,961.49
2017-01-07T19:17:23.500Z,961.55
2017-01-07T19:18:23.479Z,961.47
2017-01-07T19:19:23.457Z,961.49
2017-01-07T19:20:23.434Z,961.49
2017-01-07T19:21:23.413Z,961.49
2017-01-07T19:22:23.392Z,961.39
2017-01-07T19:23:23.370Z,961.37
2017-01-07T19:24:23.348Z,961.36
2017-01-07T19:25:23.328Z,961.38
2017-01-07T19:26:23.305Z,961.39
2017-01-07T19:27:23.284Z,961.41
2017-01-07T19:28:23.412Z,961.47
2017-01-07T19:29:23.240Z,961.45
2017-01-07T19:30:23.218Z,961.45
2017-01-07T19:31:23.207Z,961.46
2017-01-07T19:32:23.174Z,961.47
2017-01-07T19:33:23.152Z,961.47
2017-01-07T19:34:23.133Z,961.42
2017-01-07T19:35:23.111Z,961.38
2017-01-07T19:36:23.093Z,961.31
2017-01-07T19:37:23.067Z,961.33
2017-01-07T19:38:23.044Z,961.31
2017-01-07T19:39:23.022Z,961.36
2017-01-07T19:40:23.002Z,961.42
2017-01-07T19:41:22.979Z,961.44
2017-01-07T19:42:22.958Z,961.39
2017-01-07T19:43:22.937Z,961.49
2017-01-07T19:44:22.916Z,961.42
2017-01-07T19:45:22.894Z,961.42
2017-01-07T19:46:22.871Z,961.41
2017-01-07T19:47:22.850Z,961.28
2017-01-07T19:48:22.828Z,961.44
2017-01-07T19:49:22.806Z,961.4
2017-01-07T19:50:22.784Z,961.43
2017-01-07T19:51:22.762Z,961.41
2017-01-07T19:52:22.742Z,961.45
2017-01-07T19:53:22.720Z,961.52
2017-01-07T19:54:22.699Z,961.45
2017-01-07T19:55:22.676Z,961.45
2017-01-07T19:56:22.655Z,961.46
2017-01-07T19:57:22.633Z,961.44
2017-01-07T19:58:22.614Z,961.44
2017-01-07T19:59:22.589Z,961.5
2017-01-07T20:00:22.568Z,961.47
2017-01-07T20:01:22.547Z,961.39
2017-01-07T20:02:22.525Z,961.43
2017-01-07T20:03:22.503Z,961.41
2017-01-07T20:04:22.480Z,961.34
2017-01-07T20:05:22.460Z,961.35
2017-01-07T20:06:22.439Z,961.34
2017-01-07T20:07:22.418Z,961.29
2017-01-07T20:08:22.395Z,961.34
2017-01-07T20:09:22.373Z,961.28
2017-01-07T20:10:22.354Z,961.35
2017-01-07T20:11:22.332Z,961.35
2017-01-07T20:12:22.310Z,961.31
2017-01-07T20:13:22.288Z,961.32
2017-01-07T20:14:22.267Z,961.3
2017-01-07T20:15:22.244Z,961.36
2017-01-07T20:16:22.224Z,961.35
2017-01-07T20:17:22.201Z,961.37
2017-01-07T20:18:22.181Z,961.4
2017-01-07T20:19:22.158Z,961.39
2017-01-07T20:20:22.137Z,961.39
2017-01-07T20:21:22.115Z,961.4
2017-01-07T20:22:22.092Z,961.43
2017-01-07T20:23:22.070Z,961.42
2017-01-07T20:24:22.049Z,961.44
2017-01-07T20:25:22.028Z,961.44
2017-01-07T20:26:22.005Z,961.39
2017-01-07T20:27:21.983Z,961.46
2017-01-07T20:28:21.963Z,961.45
2017-01-07T20:29:21.940Z,961.47
2017-01-07T20:30:21.919Z,961.51
2017-01-07T20:31:21.898Z,961.58
2017-01-07T20:32:21.876Z,961.62
2017-01-07T20:33:21.853Z,961.51
2017-01-07T20:34:21.832Z,961.55
2017-01-07T20:35:21.810Z,961.52
2017-01-07T20:36:21.789Z,961.49
2017-01-07T20:37:21.768Z,961.49
2017-01-07T20:38:21.746Z,961.47
2017-01-07T20:39:21.724Z,961.48
2017-01-07T20:40:21.702Z,961.48
2017-01-07T20:41:21.681Z,961.5
2017-01-07T20:42:21.659Z,961.44
2017-01-07T20:43:21.638Z,961.34
2017-01-07T20:44:21.615Z,961.33
2017-01-07T20:45:21.593Z,961.31
2017-01-07T20:46:21.574Z,961.47
2017-01-07T20:47:21.552Z,961.4
2017-01-07T20:48:21.529Z,961.38
2017-01-07T20:49:21.507Z,961.41
2017-01-07T20:50:21.486Z,961.39
2017-01-07T20:51:21.467Z,961.4
2017-01-07T20:52:21.442Z,961.36
2017-01-07T20:53:21.420Z,961.39
2017-01-07T20:54:21.399Z,961.36
2017-01-07T20:55:21.377Z,961.31
2017-01-07T20:56:21.357Z,961.36
2017-01-07T20:57:21.335Z,961.36
2017-01-07T20:58:21.312Z,961.36
2017-01-07T20:59:21.290Z,961.35
2017-01-07T21:00:21.269Z,961.33
2017-01-07T21:01:21.246Z,961.39
2017-01-07T21:02:21.226Z,961.37
2017-01-07T21:03:21.203Z,961.37
2017-01-07T21:04:21.184Z,961.38
2017-01-07T21:05:21.162Z,961.33
2017-01-07T21:06:21.139Z,961.28
2017-01-07T21:07:21.117Z,961.32
2017-01-07T21:08:21.098Z,961.25
2017-01-07T21:09:21.075Z,961.31
2017-01-07T21:10:21.052Z,961.3
2017-01-07T21:11:21.032Z,961.29
2017-01-07T21:12:21.010Z,961.27
2017-01-07T21:13:20.987Z,961.22
2017-01-07T21:14:20.965Z,961.22
2017-01-07T21:15:20.960Z,961.17
2017-01-07T21:16:20.923Z,961.2
2017-01-07T21:17:20.901Z,961.11
2017-01-07T21:18:20.879Z,961.1
2017-01-07T21:19:20.859Z,961.1
2017-01-07T21:20:20.837Z,961.05
2017-01-07T21:21:20.815Z,961.05
2017-01-07T21:22:20.795Z,961.01
2017-01-07T21:23:20.772Z,960.98
2017-01-07T21:24:20.750Z,961.01
2017-01-07T21:25:20.729Z,960.93
2017-01-07T21:26:20.707Z,960.87
2017-01-07T21:27:20.685Z,960.9
2017-01-07T21:28:20.664Z,960.9
2017-01-07T21:29:20.643Z,960.84
2017-01-07T21:30:20.622Z,960.93
2017-01-07T21:31:20.600Z,960.91
2017-01-07T21:32:20.583Z,960.95
2017-01-07T21:33:20.557Z,960.95
2017-01-07T21:34:20.536Z,960.92
2017-01-07T21:35:20.512Z,960.87
2017-01-07T21:36:20.492Z,960.86
2017-01-07T21:37:20.469Z,960.88
2017-01-07T21:38:20.449Z,960.82
2017-01-07T21:39:20.427Z,960.81
2017-01-07T21:40:20.405Z,960.79
2017-01-07T21:41:20.383Z,960.81
2017-01-07T21:42:20.361Z,960.74
2017-01-07T21:43:20.340Z,960.81
2017-01-07T21:44:20.319Z,960.9
2017-01-07T21:45:20.298Z,960.8
2017-01-07T21:46:20.275Z,960.81
2017-01-07T21:47:20.255Z,960.8
2017-01-07T21:48:20.233Z,960.74
2017-01-07T21:49:20.211Z,960.7
2017-01-07T21:50:20.190Z,960.73
2017-01-07T21:51:20.167Z,960.71
2017-01-07T21:52:20.146Z,960.68
2017-01-07T21:53:20.124Z,960.68
2017-01-07T21:54:20.103Z,960.71
2017-01-07T21:55:20.082Z,960.65
2017-01-07T21:56:20.061Z,960.68
2017-01-07T21:57:20.038Z,960.73
2017-01-07T21:58:20.016Z,960.7
2017-01-07T21:59:19.995Z,960.63
2017-01-07T22:00:19.975Z,960.63
2017-01-07T22:01:19.952Z,960.67
2017-01-07T22:02:19.930Z,960.63
2017-01-07T22:03:19.910Z,960.6
2017-01-07T22:04:19.886Z,960.6
2017-01-07T22:05:19.866Z,960.56
2017-01-07T22:06:19.843Z,960.55
2017-01-07T22:07:19.823Z,960.62
2017-01-07T22:08:19.800Z,960.62
2017-01-07T22:09:19.780Z,960.54
2017-01-07T22:10:19.759Z,960.52
2017-01-07T22:11:19.737Z,960.59
2017-01-07T22:12:19.715Z,960.56
2017-01-07T22:13:19.695Z,960.53
2017-01-07T22:14:19.673Z,960.58
2017-01-07T22:15:19.653Z,960.62
2017-01-07T22:16:19.629Z,960.61
2017-01-07T22:17:19.609Z,960.66
2017-01-07T22:18:19.586Z,960.55
2017-01-07T22:19:19.565Z,960.58
2017-01-07T22:20:19.544Z,960.48
2017-01-07T22:21:19.523Z,960.53
2017-01-07T22:22:19.501Z,960.45
2017-01-07T22:23:19.478Z,960.41
2017-01-07T22:24:19.457Z,960.41
2017-01-07T22:25:19.436Z,960.4
2017-01-07T22:26:19.414Z,960.36
2017-01-07T22:27:19.395Z,960.34
2017-01-07T22:28:19.373Z,960.35
2017-01-07T22:29:19.352Z,960.34
2017-01-07T22:30:19.329Z,960.34
2017-01-07T22:31:19.309Z,960.35
2017-01-07T22:32:19.287Z,960.37
2017-01-07T22:33:19.266Z,960.35
2017-01-07T22:34:19.245Z,960.36
2017-01-07T22:35:19.231Z,960.35
2017-01-07T22:36:19.203Z,960.34
2017-01-07T22:37:19.181Z,960.3
2017-01-07T22:38:19.159Z,960.3
2017-01-07T22:39:19.138Z,960.3
2017-01-07T22:40:19.118Z,960.26
2017-01-07T22:41:19.096Z,960.28
2017-01-07T22:42:19.074Z,960.29
2017-01-07T22:43:19.054Z,960.25
2017-01-07T22:44:19.032Z,960.28
2017-01-07T22:45:19.012Z,960.29
2017-01-07T22:46:18.989Z,960.28
2017-01-07T22:47:18.981Z,960.29
2017-01-07T22:48:18.947Z,960.29
2017-01-07T22:49:18.926Z,960.3
2017-01-07T22:50:18.905Z,960.27
2017-01-07T22:51:18.885Z,960.28
2017-01-07T22:52:18.862Z,960.3
2017-01-07T22:53:18.840Z,960.32
2017-01-07T22:54:18.821Z,960.35
2017-01-07T22:55:18.800Z,960.35
2017-01-07T22:56:18.778Z,960.34
2017-01-07T22:57:18.757Z,960.37
2017-01-07T22:58:18.736Z,960.36
2017-01-07T22:59:18.713Z,960.33
2017-01-07T23:00:18.692Z,960.4
2017-01-07T23:01:18.671Z,960.37
2017-01-07T23:02:18.650Z,960.33
2017-01-07T23:03:18.628Z,960.33
2017-01-07T23:04:18.607Z,960.4
2017-01-07T23:05:18.588Z,960.37
2017-01-07T23:06:18.568Z,960.34
2017-01-07T23:07:18.544Z,960.36
2017-01-07T23:08:18.523Z,960.36
2017-01-07T23:09:18.502Z,960.4
2017-01-07T23:10:18.480Z,960.38
2017-01-07T23:11:18.458Z,960.35
2017-01-07T23:12:18.439Z,960.34
2017-01-07T23:13:18.417Z,960.34
2017-01-07T23:14:18.399Z,960.31
2017-01-07T23:15:18.373Z,960.33
2017-01-07T23:16:18.353Z,960.26
2017-01-07T23:17:18.333Z,960.29
2017-01-07T23:18:18.310Z,960.25
2017-01-07T23:19:18.291Z,960.3
2017-01-07T23:20:18.271Z,960.29
2017-01-07T23:21:18.248Z,960.31
2017-01-07T23:22:18.227Z,960.3
2017-01-07T23:23:18.207Z,960.25
2017-01-07T23:24:18.185Z,960.24
2017-01-07T23:25:18.164Z,960.24
2017-01-07T23:26:18.143Z,960.26
2017-01-07T23:27:18.123Z,960.16
2017-01-07T23:28:18.099Z,960.23
2017-01-07T23:29:18.079Z,960.2
2017-01-07T23:30:18.060Z,960.18
2017-01-07T23:31:18.038Z,960.1
2017-01-07T23:32:18.017Z,960.18
2017-01-07T23:33:17.995Z,960.21
2017-01-07T23:34:17.978Z,960.22
2017-01-07T23:35:17.954Z,960.22
2017-01-07T23:36:17.933Z,960.24
2017-01-07T23:37:17.912Z,960.15
2017-01-07T23:38:17.890Z,960.12
2017-01-07T23:39:17.871Z,960.12
2017-01-07T23:40:17.848Z,960.11
2017-01-07T23:41:17.831Z,960.06
2017-01-07T23:42:17.807Z,960.12
2017-01-07T23:43:17.785Z,960.05
2017-01-07T23:44:17.763Z,960.12
2017-01-07T23:45:17.744Z,960.14
2017-01-07T23:46:17.723Z,960.15
2017-01-07T23:47:17.701Z,960.18
2017-01-07T23:48:17.680Z,960.18
2017-01-07T23:49:17.660Z,960.05
2017-01-07T23:50:17.639Z,960.07
2017-01-07T23:51:17.616Z,960.06
2017-01-07T23:52:17.595Z,960.06
2017-01-07T23:53:17.576Z,960.05
2017-01-07T23:54:17.555Z,960.05
2017-01-07T23:55:17.533Z,960.01
2017-01-07T23:56:17.513Z,960.02
2017-01-07T23:57:17.493Z,959.98
2017-01-07T23:58:17.470Z,960.04
2017-01-07T23:59:17.451Z,960.02
